Latest Weather Observations for Noonamah

IDD60801

Issued at 9:31 pm CST Tuesday 24 May 2022 (issued every 10 minutes, with the page automatically refreshed every 10 minutes)

About weather observations | Map of weather stations | Latest weather observations for NT | Other Formats
Station Details ID: 014314 Name: NOONAMAH AIRSTRIP Lat: -12.61 Lon: 131.05 Height: 17.5 m
Data from the previous 72 hours. | See also: Recent months at Noonamah
Date/Time
CST
Temp
°C
App
Temp
°C
Dew
Point
°C
Rel
Hum
%
Delta-T
°C
Wind Press
QNH
hPa
Press
MSL
hPa
Rain since
9am
mm
Dir  Spd
km/h
Gust
km/h
Spd
kts
Gust
kts
24/09:30pm 25.8 30.1 21.9 79 2.6 SW 2 7 1 4 1013.9 1013.8 0.0
24/09:00pm 26.0 30.6 21.7 77 2.9 CALM 0 0 0 0 1013.5 1013.4 0.0
24/08:30pm 26.7 30.5 21.7 74 3.3 N 4 6 2 3 1013.2 1013.1 0.0
24/08:00pm 27.1 30.8 21.4 71 3.8 N 4 6 2 3 1012.5 1012.4 0.0
24/07:30pm 27.5 31.0 21.1 68 4.2 NNW 4 6 2 3 1012.1 1012.0 0.0
24/07:00pm 28.3 31.4 20.3 62 5.3 NW 4 6 2 3 1011.7 1011.6 0.0
24/06:30pm 29.9 33.7 20.2 56 6.4 CALM 0 0 0 0 1011.4 1011.3 0.0
24/06:00pm 32.5 34.8 16.8 39 10.0 CALM 0 0 0 0 1010.9 1010.8 0.0
24/05:30pm 33.4 35.3 15.8 34 11.0 CALM 0 0 0 0 1010.4 1010.3 0.0
24/05:00pm 33.5 35.5 15.9 34 11.0 CALM 0 4 0 2 1010.2 1010.1 0.0
24/04:30pm 33.5 34.3 15.9 34 11.1 SSW 6 9 3 5 1010.0 1009.9 0.0
24/04:00pm 34.0 35.4 16.4 35 11.1 E 4 9 2 5 1009.8 1009.7 0.0
24/03:30pm 34.0 35.0 16.4 35 11.2 ESE 6 9 3 5 1010.0 1009.9 0.0
24/03:00pm 33.8 34.9 16.6 35 10.9 NNE 6 11 3 6 1010.1 1010.0 0.0
24/02:30pm 33.9 34.8 16.7 35 10.9 NNE 7 13 4 7 1010.2 1010.1 0.0
24/02:00pm 33.7 35.0 17.0 37 10.7 ESE 6 13 3 7 1010.6 1010.5 0.0
24/01:30pm 33.5 34.1 16.8 36 10.6 ENE 9 17 5 9 1011.0 1010.9 0.0
24/01:00pm 33.3 33.8 16.6 36 10.6 E 9 19 5 10 1011.5 1011.4 0.0
24/12:30pm 32.6 32.8 16.8 38 10.0 ENE 11 20 6 11 1012.0 1011.9 0.0
24/12:00pm 32.2 32.6 17.3 41 9.5 E 11 19 6 10 1012.4 1012.3 0.0
24/11:30am 31.8 32.7 18.4 45 8.7 ENE 11 17 6 9 1012.7 1012.6 0.0
24/11:00am 31.1 31.8 18.8 48 8.0 E 13 17 7 9 1013.1 1013.0 0.0
24/10:30am 30.4 30.2 18.5 49 7.7 E 17 26 9 14 1013.2 1013.1 0.0
24/10:00am 29.7 30.4 18.8 52 7.0 E 13 20 7 11 1013.2 1013.1 0.0
24/09:30am 29.0 29.8 19.0 54 6.5 E 13 20 7 11 1013.2 1013.1 0.0
24/09:00am 27.7 29.1 19.5 61 5.3 ESE 11 19 6 10 1013.0 1012.9 0.0
24/08:30am 25.7 28.7 20.9 75 3.2 ESE 6 7 3 4 1012.9 1012.8 0.0
24/08:00am 23.7 26.6 19.8 79 2.5 E 4 4 2 2 1012.6 1012.5 0.0
24/07:30am 20.9 24.1 18.8 88 1.3 CALM 0 0 0 0 1012.5 1012.4 0.0
24/07:00am 20.7 23.7 18.5 87 1.4 CALM 0 0 0 0 1012.1 1012.0 0.0
24/06:30am 21.1 24.0 18.3 84 1.7 CALM 0 4 0 2 1011.8 1011.7 0.0
24/06:00am 20.6 23.2 18.4 87 1.4 ESE 2 4 1 2 1011.6 1011.5 0.0
24/05:30am 20.4 23.2 18.0 86 1.5 CALM 0 0 0 0 1011.3 1011.2 0.0
24/05:00am 20.1 22.6 18.1 88 1.2 NE 2 4 1 2 1011.3 1011.2 0.0
24/04:30am 20.2 23.1 18.1 88 1.3 CALM 0 0 0 0 1011.2 1011.1 0.0
24/04:00am 20.3 22.8 18.2 88 1.3 ESE 2 6 1 3 1010.9 1010.8 0.0
24/03:30am 20.3 23.2 18.1 87 1.4 CALM 0 0 0 0 1010.9 1010.8 0.0
24/03:00am 20.4 23.3 18.2 87 1.4 CALM 0 0 0 0 1011.0 1010.9 0.0
24/02:30am 20.7 23.6 18.1 85 1.6 CALM 0 0 0 0 1011.0 1010.9 0.0
24/02:00am 21.1 24.0 18.3 84 1.7 CALM 0 0 0 0 1011.3 1011.2 0.0
24/01:30am 21.8 23.5 18.0 79 2.4 NE 6 11 3 6 1011.4 1011.3 0.0
24/01:00am 20.7 23.8 18.6 88 1.3 CALM 0 0 0 0 1011.2 1011.1 0.0
24/12:30am 21.2 24.4 18.9 87 1.4 CALM 0 0 0 0 1011.6 1011.5 0.0
24/12:00am 21.4 24.6 18.8 85 1.6 CALM 0 0 0 0 1011.8 1011.7 0.0
 
Date/Time
CST
Temp
°C
App
Temp
°C
Dew
Point
°C
Rel
Hum
%
Delta-T
°C
Wind Press
QNH
hPa
Press
MSL
hPa
Rain since
9am
mm
Dir  Spd
km/h
Gust
km/h
Spd
kts
Gust
kts
23/11:30pm 21.5 24.8 19.1 86 1.5 CALM 0 0 0 0 1011.8 1011.7 0.0
23/11:00pm 21.9 25.2 19.1 84 1.8 CALM 0 0 0 0 1011.8 1011.7 0.0
23/10:30pm 22.3 25.6 19.1 82 2.0 CALM 0 0 0 0 1011.9 1011.8 0.0
23/10:00pm 22.9 26.2 19.1 79 2.4 CALM 0 0 0 0 1011.9 1011.8 0.0
23/09:30pm 23.2 25.8 19.2 78 2.5 S 4 4 2 2 1011.9 1011.8 0.0
23/09:00pm 23.6 26.8 18.9 75 3.0 CALM 0 0 0 0 1011.8 1011.7 0.0
23/08:30pm 23.8 27.0 18.9 74 3.1 CALM 0 0 0 0 1011.3 1011.2 0.0
23/08:00pm 24.6 27.2 18.5 69 3.9 E 2 6 1 3 1010.8 1010.7 0.0
23/07:30pm 25.8 28.6 18.0 62 4.9 CALM 0 0 0 0 1010.4 1010.3 0.0
23/07:00pm 27.0 29.7 17.8 57 5.8 CALM 0 0 0 0 1010.1 1010.0 0.0
23/06:30pm 29.9 31.8 17.7 48 7.8 E 4 4 2 2 1009.7 1009.6 0.0
23/06:00pm 32.0 32.9 15.1 36 10.4 E 4 6 2 3 1009.2 1009.1 0.0
23/05:30pm 33.2 33.6 14.8 33 11.4 E 6 11 3 6 1009.0 1008.8 0.0
23/05:00pm 33.9 33.4 13.9 30 12.2 ESE 9 15 5 8 1008.9 1008.7 0.0
23/04:30pm 34.4 33.4 13.3 28 12.8 ESE 11 17 6 9 1008.8 1008.6 0.0
23/04:00pm 34.6 34.2 14.0 29 12.6 ENE 9 13 5 7 1008.7 1008.5 0.0
23/03:30pm 35.0 34.5 13.8 28 13.0 SE 9 15 5 8 1008.8 1008.6 0.0
23/03:00pm 34.7 33.3 13.5 28 12.9 ESE 13 19 7 10 1009.2 1009.1 0.0
23/02:30pm 34.7 33.9 14.0 28 12.7 SE 11 17 6 9 1009.5 1009.4 0.0
23/02:00pm 34.0 33.5 15.0 32 11.8 E 11 19 6 10 1009.9 1009.8 0.0
23/01:30pm 33.6 32.8 15.1 33 11.5 ESE 13 20 7 11 1010.4 1010.3 0.0
23/01:00pm 33.5 32.7 15.0 32 11.5 ESE 13 20 7 11 1010.9 1010.8 0.0
23/12:30pm 33.5 33.2 15.5 34 11.2 ESE 11 24 6 13 1011.3 1011.2 0.0
23/12:00pm 32.8 31.6 16.2 37 10.4 E 17 26 9 14 1011.8 1011.7 0.0
23/11:30am 32.8 33.1 17.0 38 10.1 ENE 11 20 6 11 1012.1 1012.0 0.0
23/11:00am 32.0 33.2 18.2 43 8.9 ENE 9 17 5 9 1012.5 1012.4 0.0
23/10:30am 31.1 33.5 20.1 52 7.3 ENE 7 13 4 7 1012.8 1012.7 0.0
23/10:00am 30.1 32.9 20.9 57 6.1 ENE 7 13 4 7 1013.0 1012.9 0.0
23/09:30am 28.4 31.8 21.7 67 4.5 E 6 9 3 5 1013.0 1012.9 0.0
23/09:00am 26.3 28.8 19.9 68 4.2 ESE 6 7 3 4 1012.9 1012.8 0.0
23/08:30am 24.7 27.4 18.6 69 3.9 E 2 4 1 2 1012.6 1012.5 0.0
23/08:00am 22.2 24.3 18.0 77 2.6 SE 4 4 2 2 1012.3 1012.2 0.0
23/07:30am 20.2 23.2 18.5 90 1.1 CALM 0 0 0 0 1012.0 1011.9 0.0
23/07:00am 19.4 22.2 17.9 91 0.9 CALM 0 0 0 0 1011.7 1011.6 0.0
23/06:30am 19.4 22.3 18.1 92 0.8 CALM 0 6 0 3 1011.3 1011.2 0.0
23/06:00am 19.4 22.1 17.7 90 1.0 CALM 0 0 0 0 1011.0 1010.9 0.0
23/05:30am 19.4 21.9 18.1 92 0.8 S 2 4 1 2 1010.7 1010.6 0.0
23/05:00am 19.5 21.9 18.0 91 0.9 SSW 2 6 1 3 1010.6 1010.5 0.0
23/04:30am 19.8 22.7 18.3 91 0.9 CALM 0 0 0 0 1010.3 1010.2 0.0
23/04:00am 20.1 23.2 18.6 91 0.9 CALM 0 0 0 0 1010.4 1010.3 0.0
23/03:30am 20.3 23.5 18.8 91 0.9 CALM 0 0 0 0 1010.4 1010.3 0.0
23/03:00am 20.5 23.0 19.0 91 0.9 NE 4 9 2 5 1010.4 1010.3 0.0
23/02:30am 20.8 24.0 18.9 89 1.2 CALM 0 0 0 0 1010.4 1010.3 0.0
23/02:00am 21.4 24.7 19.1 87 1.5 CALM 0 0 0 0 1010.5 1010.4 0.0
23/01:30am 21.5 24.8 19.2 87 1.5 CALM 0 0 0 0 1010.6 1010.5 0.0
23/01:00am 21.9 25.4 19.5 86 1.5 CALM 0 0 0 0 1010.8 1010.7 0.0
23/12:30am 22.1 25.6 19.6 86 1.6 CALM 0 0 0 0 1011.0 1010.9 0.0
23/12:00am 22.3 25.1 19.7 85 1.7 SW 4 6 2 3 1011.1 1011.0 0.0
 
Date/Time
CST
Temp
°C
App
Temp
°C
Dew
Point
°C
Rel
Hum
%
Delta-T
°C
Wind Press
QNH
hPa
Press
MSL
hPa
Rain since
9am
mm
Dir  Spd
km/h
Gust
km/h
Spd
kts
Gust
kts
22/11:30pm 22.6 25.8 19.8 84 1.8 SSW 2 6 1 3 1011.2 1011.1 0.0
22/11:00pm 22.8 26.3 19.6 82 2.0 CALM 0 0 0 0 1011.0 1010.9 0.0
22/10:30pm 23.1 26.1 19.3 79 2.4 NE 2 4 1 2 1011.0 1010.9 0.0
22/10:00pm 23.9 27.2 19.0 74 3.1 CALM 0 2 0 1 1011.0 1010.9 0.0
22/09:30pm 24.2 27.6 19.3 74 3.1 CALM 0 4 0 2 1011.0 1010.9 0.0
22/09:00pm 24.3 27.7 19.4 74 3.1 CALM 0 0 0 0 1010.8 1010.7 0.0
22/08:30pm 25.0 28.3 19.1 69 3.8 CALM 0 0 0 0 1010.5 1010.4 0.0
22/08:00pm 25.9 29.4 19.5 68 4.1 CALM 0 0 0 0 1010.2 1010.1 0.0
22/07:30pm 26.8 30.1 19.2 63 4.9 CALM 0 0 0 0 1009.7 1009.6 0.0
22/07:00pm 28.1 31.5 19.3 58 5.7 CALM 0 0 0 0 1009.3 1009.2 0.0
22/06:30pm 29.7 32.7 18.5 51 7.2 CALM 0 0 0 0 1009.0 1008.8 0.0
22/06:00pm 32.4 33.9 15.8 36 10.4 E 2 6 1 3 1008.7 1008.5 0.0
22/05:30pm 33.2 34.0 14.8 33 11.4 E 4 6 2 3 1008.3 1008.1 0.0
22/05:00pm 33.7 33.5 13.7 30 12.2 E 7 13 4 7 1008.2 1008.0 0.0
22/04:30pm 34.0 33.4 13.5 29 12.5 ESE 9 15 5 8 1008.2 1008.0 0.0
22/04:00pm 33.9 32.5 13.4 29 12.4 ESE 13 17 7 9 1008.2 1008.0 0.0
22/03:30pm 34.2 33.3 13.6 28 12.6 ESE 11 17 6 9 1008.5 1008.3 0.0
22/03:00pm 34.1 33.1 13.5 28 12.5 ESE 11 20 6 11 1008.7 1008.5 0.0
22/02:30pm 34.5 33.8 14.4 30 12.4 SE 11 20 6 11 1009.1 1008.9 0.0
22/02:00pm 34.0 33.2 14.0 30 12.2 ESE 11 19 6 10 1009.6 1009.5 0.0
22/01:30pm 34.0 33.7 15.5 33 11.6 E 11 17 6 9 1010.0 1009.9 0.0
22/01:00pm 33.0 31.8 15.0 33 11.1 ESE 15 26 8 14 1010.6 1010.5 0.0
22/12:30pm 33.1 31.9 15.1 33 11.2 SE 15 24 8 13 1011.1 1011.0 0.0
22/12:00pm 32.1 30.5 15.1 35 10.5 ESE 17 24 9 13 1011.6 1011.5 0.0
22/11:30am 31.7 30.3 15.6 37 10.0 ESE 17 28 9 15 1012.0 1011.9 0.0
22/11:00am 31.2 30.9 16.4 41 9.3 ESE 13 22 7 12 1012.4 1012.3 0.0
22/10:30am 30.3 30.1 16.7 44 8.5 SE 13 19 7 10 1012.6 1012.5 0.0
22/10:00am 29.3 29.3 17.2 48 7.6 ESE 13 19 7 10 1012.8 1012.7 0.0
22/09:30am 28.4 27.8 16.7 49 7.3 SE 15 20 8 11 1012.7 1012.6 0.0
22/09:00am 27.6 27.7 16.6 51 6.8 SE 11 17 6 9 1012.7 1012.6 0.0
22/08:30am 26.4 27.0 16.9 56 5.9 SE 9 13 5 7 1012.4 1012.3 0.0
22/08:00am 25.4 27.0 17.8 62 4.8 ESE 6 7 3 4 1012.2 1012.1 0.0
22/07:30am 24.3 26.1 18.2 68 3.8 SSE 6 7 3 4 1011.8 1011.7 0.0
22/07:00am 23.7 26.1 18.8 74 3.1 ESE 4 6 2 3 1011.5 1011.4 0.0
22/06:30am 23.8 26.2 19.7 78 2.6 SE 6 7 3 4 1011.3 1011.2 0.0
22/06:00am 23.4 26.5 21.1 87 1.5 SE 6 7 3 4 1010.8 1010.7 0.0
22/05:30am 23.2 26.3 21.5 90 1.1 SE 7 9 4 5 1010.8 1010.7 0.0
22/05:00am 22.9 27.3 21.4 91 1.0 CALM 0 0 0 0 1010.6 1010.5 0.0
22/04:30am 22.9 26.6 21.5 92 0.9 SSE 4 7 2 4 1010.5 1010.4 0.0
22/04:00am 22.7 27.0 21.2 91 1.0 CALM 0 4 0 2 1010.3 1010.2 0.0
22/03:30am 22.7 26.7 21.3 92 0.9 SSE 2 6 1 3 1010.1 1010.0 0.0
22/03:00am 22.9 27.2 21.2 90 1.1 CALM 0 0 0 0 1010.4 1010.3 0.0
22/02:30am 23.0 27.4 21.3 90 1.1 CALM 0 0 0 0 1010.4 1010.3 0.0
22/02:00am 23.3 27.8 21.6 90 1.1 CALM 0 0 0 0 1010.6 1010.5 0.0
22/01:30am 23.2 27.7 21.5 90 1.1 CALM 0 6 0 3 1010.8 1010.7 0.0
22/01:00am 22.8 25.9 21.1 90 1.1 NNE 6 9 3 5 1010.8 1010.7 0.0
22/12:30am 23.6 28.0 21.3 87 1.5 CALM 0 0 0 0 1010.8 1010.7 0.0
22/12:00am 23.9 28.2 21.2 85 1.8 CALM 0 0 0 0 1011.0 1010.9 0.0
 
Date/Time
CST
Temp
°C
App
Temp
°C
Dew
Point
°C
Rel
Hum
%
Delta-T
°C
Wind Press
QNH
hPa
Press
MSL
hPa
Rain since
9am
mm
Dir  Spd
km/h
Gust
km/h
Spd
kts
Gust
kts
21/11:30pm 24.1 28.4 21.2 84 1.9 CALM 0 0 0 0 1011.1 1011.0 0.0
21/11:00pm 24.3 28.6 21.2 83 2.0 CALM 0 0 0 0 1011.1 1011.0 0.0
21/10:30pm 24.8 29.1 21.1 80 2.4 CALM 0 0 0 0 1011.0 1010.9 0.0
21/10:00pm 25.2 28.8 21.3 79 2.6 SW 4 7 2 4 1011.1 1011.0 0.0

Other formats

Comma delimited format used in spreadsheet applications
http://www.bom.gov.au/fwo/IDD60801/IDD60801.94105.axf

JavaScript Object Notation format (JSON) in row-major order
http://www.bom.gov.au/fwo/IDD60801/IDD60801.94105.json

Data quality

Most of these data are generated automatically and are frequently updated. Quality checks on data are not normally performed. It is possible for incorrect values to appear. Refer to information at About Latest Weather Observations and please check the disclaimer before using these data.